createdAt,value
2018-12-20T00:02:02.971Z,46.60
2018-12-20T00:04:48.808Z,48.33
2018-12-20T00:07:23.741Z,44.53
2018-12-20T00:10:04.610Z,40.30
2018-12-20T00:12:44.193Z,42.13
2018-12-20T00:15:23.372Z,42.57
2018-12-20T00:17:56.855Z,41.47
2018-12-20T00:20:37.290Z,37.00
2018-12-20T00:23:16.085Z,43.03
2018-12-20T00:26:01.121Z,43.20
2018-12-20T00:28:50.626Z,47.30
2018-12-20T00:31:29.102Z,44.47
2018-12-20T00:34:06.577Z,44.83
2018-12-20T00:48:45.548Z,47.90
2018-12-20T00:51:19.279Z,48.53
2018-12-20T00:53:58.349Z,47.70
2018-12-20T00:56:31.977Z,46.63
2018-12-20T00:59:13.346Z,50.20
2018-12-20T01:01:46.945Z,45.63
2018-12-20T01:04:24.118Z,51.43
2018-12-20T01:06:57.885Z,46.27
2018-12-20T01:09:37.503Z,48.43
2018-12-20T01:12:11.260Z,42.10
2018-12-20T01:15:06.977Z,46.20
2018-12-20T01:17:40.574Z,45.93
2018-12-20T01:20:14.367Z,46.73
2018-12-20T01:22:47.941Z,45.23
2018-12-20T01:25:22.797Z,43.17
2018-12-20T01:27:56.434Z,47.70
2018-12-20T01:30:32.980Z,46.03
2018-12-20T01:33:06.681Z,42.87
2018-12-20T01:38:50.881Z,48.03
2018-12-20T01:41:24.611Z,51.47
2018-12-20T01:44:02.881Z,47.83
2018-12-20T01:46:36.548Z,48.60
2018-12-20T01:49:10.278Z,45.23
2018-12-20T01:51:44.035Z,50.80
2018-12-20T01:54:17.506Z,52.53
2018-12-20T01:56:52.982Z,50.93
2018-12-20T01:59:26.460Z,47.30
2018-12-20T02:02:05.873Z,48.70
2018-12-20T02:04:39.876Z,54.53
2018-12-20T02:07:13.666Z,52.03
2018-12-20T02:09:47.142Z,51.60
2018-12-20T02:12:21.917Z,55.37
2018-12-20T02:15:01.658Z,52.13
2018-12-20T02:17:33.058Z,49.77
2018-12-20T02:20:06.694Z,54.83
2018-12-20T02:22:41.190Z,51.23
2018-12-20T02:25:14.645Z,59.53
2018-12-20T02:27:49.101Z,58.23
2018-12-20T02:30:22.694Z,55.43
2018-12-20T02:33:03.677Z,57.00
2018-12-20T02:35:38.473Z,58.77
2018-12-20T02:41:22.777Z,53.07
2018-12-20T02:44:02.268Z,49.17
2018-12-20T02:46:47.626Z,47.93
2018-12-20T02:49:22.056Z,53.07
2018-12-20T02:51:55.575Z,54.90
2018-12-20T02:54:34.779Z,50.27
2018-12-20T02:57:08.678Z,50.53
2018-12-20T02:59:50.020Z,51.77
2018-12-20T03:02:23.546Z,54.50
2018-12-20T03:05:02.739Z,52.40
2018-12-20T03:07:36.567Z,46.73
2018-12-20T03:10:14.008Z,62.03
2018-12-20T03:12:47.762Z,51.73
2018-12-20T03:15:22.538Z,51.00
2018-12-20T03:17:56.265Z,57.47
2018-12-20T03:20:37.837Z,50.37
2018-12-20T03:23:11.663Z,54.87
2018-12-20T03:25:46.477Z,50.87
2018-12-20T03:28:20.201Z,45.83
2018-12-20T03:30:54.273Z,60.63
2018-12-20T03:33:28.184Z,55.67
2018-12-20T03:36:13.106Z,56.23
2018-12-20T03:38:46.593Z,52.97
2018-12-20T03:41:25.494Z,51.73
2018-12-20T03:43:58.979Z,55.97
2018-12-20T03:46:34.634Z,50.80
2018-12-20T03:49:14.050Z,54.33
2018-12-20T03:51:51.107Z,59.43
2018-12-20T03:54:34.809Z,52.43
2018-12-20T03:57:14.659Z,56.63
2018-12-20T03:59:51.225Z,51.60
2018-12-20T04:02:25.064Z,54.23
2018-12-20T04:23:27.082Z,57.13
2018-12-20T04:26:02.553Z,56.07
2018-12-20T04:28:36.038Z,52.77
2018-12-20T04:31:15.318Z,52.30
2018-12-20T04:33:49.175Z,58.83
2018-12-20T04:36:26.024Z,65.97
2018-12-20T04:39:17.504Z,59.47
2018-12-20T04:41:55.046Z,66.50
2018-12-20T04:44:31.888Z,53.67
2018-12-20T05:19:53.595Z,64.43
2018-12-20T05:22:33.666Z,63.30
2018-12-20T05:25:19.076Z,57.97
2018-12-20T05:27:52.901Z,69.13
2018-12-20T05:30:32.695Z,58.67
2018-12-20T05:33:12.216Z,64.37
2018-12-20T05:35:49.242Z,67.63
2018-12-20T05:38:34.877Z,61.03
2018-12-20T05:41:09.776Z,67.63
2018-12-20T05:43:49.258Z,70.07
2018-12-20T05:46:28.097Z,68.87
2018-12-20T05:49:01.862Z,72.73
2018-12-20T05:51:37.545Z,71.80
2018-12-20T05:54:11.019Z,70.80
2018-12-20T05:56:49.238Z,64.77
2018-12-20T05:59:23.021Z,69.07
2018-12-20T06:02:00.474Z,65.47
2018-12-20T06:04:34.470Z,70.57
2018-12-20T06:07:10.219Z,62.20
2018-12-20T06:09:44.184Z,74.00
2018-12-20T06:12:23.139Z,72.70
2018-12-20T06:14:56.782Z,75.43
2018-12-20T06:17:30.355Z,71.33
2018-12-20T06:20:05.657Z,78.00
2018-12-20T06:22:39.403Z,69.07
2018-12-20T06:25:21.295Z,75.90
2018-12-20T06:27:55.412Z,80.20
2018-12-20T06:30:29.894Z,85.23
2018-12-20T06:33:03.376Z,81.20
2018-12-20T06:35:37.812Z,83.60
2018-12-20T06:38:11.384Z,84.57
2018-12-20T06:40:45.871Z,81.60
2018-12-20T06:43:19.362Z,81.73
2018-12-20T06:45:57.044Z,89.37
2018-12-20T06:48:30.538Z,87.80
2018-12-20T06:51:08.832Z,96.20
2018-12-20T06:53:42.319Z,87.63
2018-12-20T06:56:16.791Z,72.40
2018-12-20T06:58:50.279Z,85.03
2018-12-20T07:01:25.698Z,76.57
2018-12-20T07:03:59.184Z,77.80
2018-12-20T07:06:53.662Z,81.90
2018-12-20T07:09:27.440Z,82.07
2018-12-20T07:12:16.540Z,86.10
2018-12-20T07:14:50.142Z,92.00
2018-12-20T07:20:21.272Z,86.60
2018-12-20T07:22:54.715Z,94.70
2018-12-20T07:25:29.382Z,83.00
2018-12-20T07:28:02.811Z,88.43
2018-12-20T07:30:36.269Z,88.93
2018-12-20T07:33:09.701Z,95.17
2018-12-20T07:35:43.159Z,87.07
2018-12-20T07:38:16.600Z,92.53
2018-12-20T07:40:50.065Z,100.73
2018-12-20T07:43:23.504Z,97.87
2018-12-20T07:48:59.562Z,87.73
2018-12-20T07:51:32.989Z,91.87
2018-12-20T07:54:06.444Z,88.33
2018-12-20T07:59:44.792Z,87.87
2018-12-20T08:02:18.220Z,89.10
2018-12-20T08:04:51.690Z,93.87
2018-12-20T08:07:25.167Z,88.97
2018-12-20T08:09:58.659Z,101.90
2018-12-20T08:12:32.088Z,99.60
2018-12-20T08:15:12.699Z,82.70
2018-12-20T08:17:46.217Z,92.10
2018-12-20T08:20:19.753Z,91.10
2018-12-20T08:22:53.182Z,77.13
2018-12-20T08:25:26.717Z,81.63
2018-12-20T08:28:00.148Z,93.10
2018-12-20T08:30:33.617Z,76.97
2018-12-20T08:33:07.049Z,71.93
2018-12-20T08:35:40.521Z,75.47
2018-12-20T08:38:13.952Z,78.70
2018-12-20T08:40:47.419Z,79.33
2018-12-20T08:43:20.856Z,79.33
2018-12-20T08:48:56.931Z,77.40
2018-12-20T08:51:30.358Z,76.43
2018-12-20T08:54:04.540Z,69.97
2018-12-20T08:56:37.968Z,70.10
2018-12-20T08:59:11.423Z,68.53
2018-12-20T09:01:44.892Z,69.63
2018-12-20T09:04:18.352Z,71.47
2018-12-20T09:06:51.788Z,74.47
2018-12-20T09:09:25.235Z,64.10
2018-12-20T09:11:58.663Z,64.87
2018-12-20T09:14:32.140Z,68.33
2018-12-20T09:17:05.573Z,67.23
2018-12-20T09:19:39.572Z,67.93
2018-12-20T09:22:13.071Z,69.17
2018-12-20T09:24:53.762Z,64.07
2018-12-20T09:27:27.244Z,62.40
2018-12-20T09:30:00.983Z,66.00
2018-12-20T09:32:42.215Z,59.63
2018-12-20T09:35:15.705Z,64.60
2018-12-20T09:37:51.134Z,61.77
2018-12-20T09:40:24.620Z,61.60
2018-12-20T09:43:08.500Z,64.57
2018-12-20T09:45:41.988Z,59.73
2018-12-20T09:48:17.392Z,56.37
2018-12-20T09:50:50.885Z,63.70
2018-12-20T09:53:33.642Z,58.73
2018-12-20T09:56:07.139Z,63.83
2018-12-20T09:58:44.293Z,60.10
2018-12-20T10:01:17.790Z,59.10
2018-12-20T10:03:54.483Z,59.97
2018-12-20T10:06:27.992Z,62.20
2018-12-20T10:09:04.868Z,58.93
2018-12-20T10:11:38.359Z,57.23
2018-12-20T10:14:13.798Z,60.50
2018-12-20T10:16:47.269Z,57.43
2018-12-20T10:19:30.347Z,56.30
2018-12-20T10:22:04.759Z,64.27
2018-12-20T10:24:38.238Z,63.17
2018-12-20T10:27:11.771Z,61.10
2018-12-20T10:29:45.251Z,58.60
2018-12-20T10:32:29.034Z,60.57
2018-12-20T10:35:02.524Z,59.67
2018-12-20T10:37:41.569Z,68.23
2018-12-20T10:40:15.058Z,63.47
2018-12-20T10:42:52.370Z,65.40
2018-12-20T10:45:25.831Z,65.17
2018-12-20T10:48:05.801Z,66.13
2018-12-20T10:50:39.267Z,67.83
2018-12-20T10:53:18.522Z,64.53
2018-12-20T10:55:51.989Z,69.40
2018-12-20T10:58:29.459Z,72.33
2018-12-20T11:01:08.307Z,70.93
2018-12-20T11:03:45.898Z,69.00
2018-12-20T11:06:24.831Z,71.20
2018-12-20T11:09:04.081Z,67.30
2018-12-20T11:11:42.871Z,60.63
2018-12-20T11:14:25.305Z,61.73
2018-12-20T11:19:58.419Z,71.30
2018-12-20T11:22:49.400Z,67.90
2018-12-20T11:25:22.884Z,71.20
2018-12-20T11:28:01.173Z,67.23
2018-12-20T11:30:34.707Z,70.53
2018-12-20T11:33:11.941Z,70.13
2018-12-20T11:35:46.158Z,76.00
2018-12-20T11:38:24.253Z,69.43
2018-12-20T11:40:57.755Z,66.43
2018-12-20T11:43:33.399Z,78.07
2018-12-20T11:46:06.982Z,63.77
2018-12-20T11:48:41.491Z,69.47
2018-12-20T11:51:15.196Z,62.70
2018-12-20T11:53:52.416Z,68.03
2018-12-20T11:56:25.902Z,64.10
2018-12-20T11:59:06.129Z,72.10
2018-12-20T12:01:39.621Z,74.67
2018-12-20T12:07:15.192Z,65.80
2018-12-20T12:09:48.624Z,75.23
2018-12-20T12:12:22.074Z,68.50
2018-12-20T12:14:55.513Z,67.00
2018-12-20T12:17:28.973Z,69.67
2018-12-20T12:20:02.485Z,73.67
2018-12-20T12:22:35.949Z,71.87
2018-12-20T12:25:09.395Z,73.07
2018-12-20T12:27:42.859Z,70.67
2018-12-20T12:30:16.293Z,73.07
2018-12-20T12:32:49.739Z,66.30
2018-12-20T12:35:23.175Z,68.20
2018-12-20T12:37:56.626Z,71.90
2018-12-20T12:40:30.050Z,65.37
2018-12-20T12:43:03.501Z,68.60
2018-12-20T12:45:36.961Z,74.90
2018-12-20T12:48:10.434Z,70.23
2018-12-20T12:50:43.868Z,71.27
2018-12-20T12:53:17.317Z,68.80
2018-12-20T12:55:50.756Z,74.47
2018-12-20T12:58:24.220Z,61.67
2018-12-20T13:00:57.648Z,69.30
2018-12-20T13:03:31.107Z,65.30
2018-12-20T13:06:04.538Z,65.33
2018-12-20T13:08:37.999Z,69.10
2018-12-20T13:11:11.434Z,69.93
2018-12-20T13:13:45.294Z,66.20
2018-12-20T13:19:28.033Z,66.27
2018-12-20T13:22:01.466Z,61.97
2018-12-20T13:24:34.913Z,59.37
2018-12-20T13:27:08.345Z,61.60
2018-12-20T13:29:41.826Z,55.70
2018-12-20T13:32:15.268Z,58.03
2018-12-20T13:34:48.730Z,65.97
2018-12-20T13:46:20.551Z,64.37
2018-12-20T13:48:55.926Z,67.37
2018-12-20T13:51:32.180Z,71.87
2018-12-20T13:54:17.741Z,68.30
2018-12-20T14:05:57.984Z,70.47
2018-12-20T14:08:31.817Z,65.23
2018-12-20T14:11:05.310Z,65.90
2018-12-20T14:13:39.015Z,67.13
2018-12-20T14:16:12.523Z,68.37
2018-12-20T14:22:09.010Z,71.63
2018-12-20T14:24:46.286Z,73.37
2018-12-20T14:27:21.514Z,68.43
2018-12-20T14:29:58.589Z,70.53
2018-12-20T14:32:32.089Z,69.03
2018-12-20T14:35:10.390Z,68.83
2018-12-20T14:37:43.873Z,79.90
2018-12-20T14:40:22.188Z,76.80
2018-12-20T14:42:55.664Z,72.77
2018-12-20T14:45:29.390Z,74.60
2018-12-20T14:48:02.879Z,71.60
2018-12-20T14:50:36.480Z,75.03
2018-12-20T14:53:09.979Z,70.33
2018-12-20T14:55:43.701Z,71.57
2018-12-20T14:58:17.245Z,65.70
2018-12-20T15:00:50.908Z,71.03
2018-12-20T15:03:24.398Z,64.47
2018-12-20T15:05:59.082Z,77.97
2018-12-20T15:08:32.967Z,63.13
2018-12-20T15:11:06.847Z,69.70
2018-12-20T15:13:40.332Z,68.60
2018-12-20T15:16:13.832Z,73.20
2018-12-20T15:18:47.889Z,66.63
2018-12-20T15:21:21.737Z,70.83
2018-12-20T15:23:55.213Z,67.33
2018-12-20T15:26:28.674Z,76.50
2018-12-20T15:29:02.587Z,67.83
2018-12-20T15:31:36.035Z,68.23
2018-12-20T15:34:09.775Z,58.43
2018-12-20T15:36:43.263Z,69.53
2018-12-20T15:39:16.883Z,64.60
2018-12-20T15:41:50.381Z,68.60
2018-12-20T15:44:24.712Z,64.53
2018-12-20T15:46:58.158Z,67.27
2018-12-20T15:49:31.884Z,76.67
2018-12-20T15:52:05.338Z,72.23
2018-12-20T15:54:39.099Z,72.10
2018-12-20T15:57:12.560Z,70.40
2018-12-20T15:59:46.302Z,69.70
2018-12-20T16:02:20.394Z,71.90
2018-12-20T16:05:05.939Z,74.33
2018-12-20T16:07:39.390Z,72.20
2018-12-20T16:10:13.049Z,71.77
2018-12-20T16:12:46.509Z,73.27
2018-12-20T16:15:32.937Z,73.47
2018-12-20T16:18:06.421Z,71.93
2018-12-20T16:20:54.753Z,78.07
2018-12-20T16:23:28.224Z,67.40
2018-12-20T16:26:01.761Z,68.57
2018-12-20T16:28:36.366Z,71.27
2018-12-20T16:31:09.856Z,70.40
2018-12-20T16:33:43.408Z,66.37
2018-12-20T16:36:16.918Z,69.83
2018-12-20T16:38:52.934Z,69.67
2018-12-20T16:41:26.623Z,76.73
2018-12-20T16:44:02.142Z,65.33
2018-12-20T16:46:35.630Z,68.47
2018-12-20T16:49:13.734Z,61.10
2018-12-20T16:51:47.751Z,77.10
2018-12-20T16:54:22.275Z,71.07
2018-12-20T16:56:55.841Z,73.07
2018-12-20T16:59:50.084Z,67.93
2018-12-20T17:02:23.563Z,69.23
2018-12-20T17:20:26.854Z,66.17
2018-12-20T17:23:20.332Z,73.37
2018-12-20T17:26:12.572Z,74.20
2018-12-20T17:28:46.066Z,68.03
2018-12-20T17:31:39.296Z,71.17
2018-12-20T17:34:13.032Z,70.37
2018-12-20T17:36:54.384Z,72.83
2018-12-20T17:39:27.860Z,75.07
2018-12-20T17:42:07.289Z,77.00
2018-12-20T17:44:40.719Z,73.43
2018-12-20T17:47:14.170Z,77.37
2018-12-20T17:49:48.529Z,73.27
2018-12-20T17:52:22.723Z,71.87
2018-12-20T17:54:56.156Z,71.10
2018-12-20T17:57:29.608Z,73.80
2018-12-20T18:00:03.056Z,77.40
2018-12-20T18:02:36.562Z,78.83
2018-12-20T18:08:04.813Z,79.33
2018-12-20T18:10:43.986Z,74.47
2018-12-20T18:19:26.273Z,81.07
2018-12-20T18:22:19.917Z,76.80
2018-12-20T18:24:58.697Z,83.70
2018-12-20T18:27:37.238Z,90.40
2018-12-20T18:30:15.723Z,82.03
2018-12-20T18:35:53.366Z,85.63
2018-12-20T18:38:32.323Z,93.03
2018-12-20T18:41:06.035Z,85.00
2018-12-20T18:43:47.320Z,85.90
2018-12-20T18:52:31.263Z,80.60
2018-12-20T18:55:06.212Z,81.63
2018-12-20T18:57:39.696Z,78.87
2018-12-20T19:00:16.492Z,79.97
2018-12-20T19:02:49.978Z,86.30
2018-12-20T19:05:23.456Z,88.30
2018-12-20T19:07:56.957Z,90.93
2018-12-20T19:10:37.259Z,91.50
2018-12-20T19:13:22.082Z,94.87
2018-12-20T19:19:00.527Z,85.30
2018-12-20T19:21:43.331Z,90.77
2018-12-20T19:24:16.838Z,89.00
2018-12-20T19:26:52.263Z,92.67
2018-12-20T19:29:25.839Z,92.97
2018-12-20T19:31:59.372Z,93.93
2018-12-20T19:34:49.137Z,93.17
2018-12-20T19:37:22.638Z,87.57
2018-12-20T19:40:02.253Z,84.43
2018-12-20T19:42:35.722Z,95.90
2018-12-20T19:45:19.046Z,92.90
2018-12-20T19:47:52.540Z,96.67
2018-12-20T19:50:29.172Z,98.93
2018-12-20T19:53:02.662Z,105.50
2018-12-20T19:55:43.131Z,97.57
2018-12-20T19:58:16.983Z,97.50
2018-12-20T20:01:00.683Z,111.27
2018-12-20T20:03:34.169Z,106.20
2018-12-20T20:06:14.837Z,99.13
2018-12-20T20:08:53.429Z,111.33
2018-12-20T20:11:35.945Z,96.63
2018-12-20T20:14:16.196Z,105.33
2018-12-20T20:16:55.066Z,106.93
2018-12-20T20:19:42.134Z,101.80
2018-12-20T20:22:16.734Z,98.37
2018-12-20T20:24:55.241Z,101.93
2018-12-20T20:27:38.421Z,95.67
2018-12-20T20:30:18.187Z,91.50
2018-12-20T20:33:03.269Z,97.20
2018-12-20T20:35:42.536Z,95.13
2018-12-20T20:38:21.081Z,93.27
2018-12-20T20:40:54.559Z,94.23
2018-12-20T20:43:31.107Z,93.33
2018-12-20T20:46:10.412Z,105.23
2018-12-20T20:48:43.897Z,95.90
2018-12-20T20:51:30.502Z,93.80
2018-12-20T20:54:04.007Z,90.90
2018-12-20T20:56:43.486Z,91.53
2018-12-20T20:59:18.186Z,95.37
2018-12-20T21:01:55.161Z,107.43
2018-12-20T21:04:31.311Z,103.77
2018-12-20T21:10:18.013Z,93.77
2018-12-20T21:13:00.403Z,95.17
2018-12-20T21:15:45.628Z,96.03
2018-12-20T21:18:31.132Z,97.03
2018-12-20T21:21:04.599Z,103.17
2018-12-20T21:23:38.030Z,95.17
2018-12-20T21:26:11.489Z,108.57
2018-12-20T21:28:44.943Z,95.77
2018-12-20T21:31:18.400Z,98.00
2018-12-20T21:33:51.828Z,91.87
2018-12-20T21:36:32.833Z,92.40
2018-12-20T21:39:06.942Z,87.67
2018-12-20T21:41:40.402Z,92.33
2018-12-20T21:44:13.837Z,98.33
2018-12-20T21:46:47.293Z,101.30
2018-12-20T21:49:20.739Z,101.87
2018-12-20T21:52:06.644Z,101.97
2018-12-20T21:54:46.817Z,91.70
2018-12-20T21:57:34.566Z,105.10
2018-12-20T22:00:09.657Z,105.63
2018-12-20T22:02:49.908Z,98.80
2018-12-20T22:05:30.112Z,108.77
2018-12-20T22:08:08.940Z,106.60
2018-12-20T22:10:47.861Z,102.03
2018-12-20T22:13:37.949Z,108.13
2018-12-20T22:19:14.252Z,104.07
2018-12-20T22:21:49.786Z,96.83
2018-12-20T22:24:23.312Z,102.27
2018-12-20T22:27:06.665Z,105.43
2018-12-20T22:29:40.530Z,86.63
2018-12-20T22:32:20.722Z,102.27
2018-12-20T22:34:54.202Z,96.00
2018-12-20T22:37:38.883Z,89.13
2018-12-20T22:40:12.406Z,101.20
2018-12-20T22:42:49.516Z,93.43
2018-12-20T22:45:23.008Z,93.80
2018-12-20T22:48:02.281Z,101.77
2018-12-20T22:50:35.780Z,99.60
2018-12-20T22:53:23.074Z,94.93
2018-12-20T22:56:04.864Z,94.77
2018-12-20T22:58:40.923Z,96.80
2018-12-20T23:01:15.473Z,99.17
2018-12-20T23:03:48.960Z,96.47
2018-12-20T23:06:26.960Z,99.43
2018-12-20T23:09:00.432Z,105.43
2018-12-20T23:11:34.978Z,110.03
2018-12-20T23:14:08.461Z,107.57
2018-12-20T23:16:53.856Z,102.83
2018-12-20T23:19:27.778Z,101.17
2018-12-20T23:22:09.102Z,114.07
2018-12-20T23:24:42.589Z,98.60
2018-12-20T23:27:32.310Z,111.07
2018-12-20T23:30:06.304Z,105.87
2018-12-20T23:32:39.810Z,102.80
2018-12-20T23:35:15.227Z,98.63
2018-12-20T23:37:48.727Z,92.40
2018-12-20T23:40:33.329Z,101.47
2018-12-20T23:43:06.819Z,92.47
2018-12-20T23:45:47.820Z,101.80
2018-12-20T23:48:21.315Z,99.33
2018-12-20T23:51:00.958Z,102.37
2018-12-20T23:53:34.520Z,94.43
2018-12-20T23:56:17.761Z,92.83
2018-12-20T23:58:51.256Z,91.47
